createdAt,value
2019-02-18T00:00:31.526Z,101154.00
2019-02-18T00:03:02.156Z,101141.00
2019-02-18T00:05:32.510Z,101147.00
2019-02-18T00:08:03.343Z,101149.00
2019-02-18T00:10:34.287Z,101151.00
2019-02-18T00:13:04.608Z,101152.00
2019-02-18T00:15:34.962Z,101151.00
2019-02-18T00:18:05.370Z,101157.00
2019-02-18T00:20:35.985Z,101150.00
2019-02-18T00:23:06.359Z,101162.00
2019-02-18T00:25:36.756Z,101163.00
2019-02-18T00:28:07.485Z,101158.00
2019-02-18T00:30:38.334Z,101158.00
2019-02-18T00:33:08.664Z,101153.00
2019-02-18T00:35:39.002Z,101155.00
2019-02-18T00:38:09.323Z,101149.00
2019-02-18T00:40:39.732Z,101152.00
2019-02-18T00:43:10.065Z,101157.00
2019-02-18T00:45:40.508Z,101160.00
2019-02-18T00:48:10.888Z,101162.00
2019-02-18T00:50:41.503Z,101158.00
2019-02-18T00:53:12.167Z,101149.00
2019-02-18T00:55:43.117Z,101155.00
2019-02-18T00:58:13.756Z,101149.00
2019-02-18T01:00:44.258Z,101156.00
2019-02-18T01:03:15.456Z,101155.00
2019-02-18T01:05:45.883Z,101164.00
2019-02-18T01:08:16.254Z,101156.00
2019-02-18T01:10:46.635Z,101154.00
2019-02-18T01:13:17.334Z,101155.00
2019-02-18T01:15:47.665Z,101160.00
2019-02-18T01:18:17.999Z,101171.00
2019-02-18T01:20:49.085Z,101164.00
2019-02-18T01:23:19.521Z,101164.00
2019-02-18T01:25:49.861Z,101158.00
2019-02-18T01:28:20.269Z,101164.00
2019-02-18T01:30:50.994Z,101160.00
2019-02-18T01:33:21.408Z,101157.00
2019-02-18T01:35:51.851Z,101162.00
2019-02-18T01:38:29.679Z,101166.00
2019-02-18T01:41:00.075Z,101164.00
2019-02-18T01:43:30.499Z,101157.00
2019-02-18T01:46:00.877Z,101164.00
2019-02-18T01:48:31.238Z,101171.00
2019-02-18T01:51:02.333Z,101176.00
2019-02-18T01:53:32.761Z,101166.00
2019-02-18T01:56:03.360Z,101156.00
2019-02-18T01:58:34.124Z,101155.00
2019-02-18T02:01:04.468Z,101161.00
2019-02-18T02:03:34.813Z,101157.00
2019-02-18T02:06:05.251Z,101153.00
2019-02-18T02:08:35.823Z,101146.00
2019-02-18T02:11:06.236Z,101151.00
2019-02-18T02:13:37.799Z,101142.00
2019-02-18T02:16:11.349Z,101141.00
2019-02-18T02:18:42.236Z,101146.00
2019-02-18T02:21:12.623Z,101135.00
2019-02-18T02:23:43.209Z,101140.00
2019-02-18T02:26:13.563Z,101138.00
2019-02-18T02:28:44.454Z,101136.00
2019-02-18T02:31:15.634Z,101135.00
2019-02-18T02:33:46.293Z,101134.00
2019-02-18T02:36:16.725Z,101133.00
2019-02-18T02:38:47.128Z,101131.00
2019-02-18T02:41:17.445Z,101134.00
2019-02-18T02:43:47.830Z,101135.00
2019-02-18T02:46:18.414Z,101129.00
2019-02-18T02:48:49.090Z,101128.00
2019-02-18T02:51:19.416Z,101132.00
2019-02-18T02:53:49.754Z,101131.00
2019-02-18T02:56:20.348Z,101126.00
2019-02-18T02:58:50.726Z,101130.00
2019-02-18T03:01:21.585Z,101128.00
2019-02-18T03:03:52.212Z,101130.00
2019-02-18T03:06:31.785Z,101122.00
2019-02-18T03:09:02.122Z,101128.00
2019-02-18T03:11:32.806Z,101139.00
2019-02-18T03:14:03.156Z,101132.00
2019-02-18T03:16:33.557Z,101126.00
2019-02-18T03:19:03.892Z,101136.00
2019-02-18T03:21:36.003Z,101127.00
2019-02-18T03:24:06.332Z,101135.00
2019-02-18T03:26:36.957Z,101134.00
2019-02-18T03:30:18.768Z,101125.00
2019-02-18T03:32:56.428Z,101138.00
2019-02-18T03:35:26.782Z,101133.00
2019-02-18T03:37:59.328Z,101130.00
2019-02-18T03:40:29.644Z,101133.00
2019-02-18T03:43:00.344Z,101126.00
2019-02-18T03:45:30.952Z,101127.00
2019-02-18T03:48:01.523Z,101116.00
2019-02-18T03:50:31.812Z,101118.00
2019-02-18T03:53:02.563Z,101115.00
2019-02-18T03:55:32.981Z,101106.00
2019-02-18T03:58:03.336Z,101113.00
2019-02-18T04:00:53.649Z,101120.00
2019-02-18T04:03:23.985Z,101122.00
2019-02-18T04:05:54.690Z,101118.00
2019-02-18T04:08:25.258Z,101119.00
2019-02-18T04:10:55.872Z,101123.00
2019-02-18T04:13:26.190Z,101118.00
2019-02-18T04:15:56.799Z,101125.00
2019-02-18T04:18:34.034Z,101124.00
2019-02-18T04:21:04.494Z,101132.00
2019-02-18T04:23:34.844Z,101131.00
2019-02-18T04:26:05.189Z,101135.00
2019-02-18T04:28:35.554Z,101122.00
2019-02-18T04:31:05.888Z,101125.00
2019-02-18T04:33:38.409Z,101129.00
2019-02-18T04:36:08.779Z,101128.00
2019-02-18T04:38:39.886Z,101136.00
2019-02-18T04:41:10.465Z,101131.00
2019-02-18T04:43:42.162Z,101132.00
2019-02-18T04:46:13.522Z,101135.00
2019-02-18T04:48:43.870Z,101134.00
2019-02-18T04:51:14.211Z,101141.00
2019-02-18T04:53:44.887Z,101140.00
2019-02-18T04:56:15.214Z,101136.00
2019-02-18T04:58:46.150Z,101134.00
2019-02-18T05:01:16.849Z,101142.00
2019-02-18T05:03:47.522Z,101136.00
2019-02-18T05:06:17.897Z,101138.00
2019-02-18T05:08:48.288Z,101125.00
2019-02-18T05:11:18.675Z,101125.00
2019-02-18T05:13:49.025Z,101131.00
2019-02-18T05:16:19.776Z,101132.00
2019-02-18T05:18:50.367Z,101124.00
2019-02-18T05:21:20.773Z,101126.00
2019-02-18T05:24:01.893Z,101124.00
2019-02-18T05:26:32.568Z,101128.00
2019-02-18T05:29:02.938Z,101129.00
2019-02-18T05:31:33.557Z,101105.00
2019-02-18T05:34:03.885Z,101107.00
2019-02-18T05:36:34.250Z,101104.00
2019-02-18T05:39:17.088Z,101102.00
2019-02-18T05:41:52.706Z,101109.00
2019-02-18T05:44:22.982Z,101096.00
2019-02-18T05:46:53.345Z,101102.00
2019-02-18T05:49:23.863Z,101109.00
2019-02-18T05:51:54.304Z,101105.00
2019-02-18T05:54:24.991Z,101103.00
2019-02-18T05:56:55.322Z,101102.00
2019-02-18T05:59:25.711Z,101100.00
2019-02-18T06:01:56.548Z,101104.00
2019-02-18T06:04:28.690Z,101100.00
2019-02-18T06:06:59.515Z,101102.00
2019-02-18T06:09:31.833Z,101100.00
2019-02-18T06:12:02.269Z,101103.00
2019-02-18T06:14:32.894Z,101099.00
2019-02-18T06:17:03.227Z,101102.00
2019-02-18T06:19:41.859Z,101092.00
2019-02-18T06:22:12.543Z,101101.00
2019-02-18T06:24:43.195Z,101102.00
2019-02-18T06:27:13.820Z,101101.00
2019-02-18T06:29:44.766Z,101095.00
2019-02-18T06:32:15.144Z,101102.00
2019-02-18T06:34:46.179Z,101103.00
2019-02-18T06:37:16.505Z,101114.00
2019-02-18T06:39:46.845Z,101108.00
2019-02-18T06:42:17.208Z,101106.00
2019-02-18T06:45:21.891Z,101109.00
2019-02-18T06:47:52.562Z,101112.00
2019-02-18T06:50:22.929Z,101122.00
2019-02-18T06:52:54.452Z,101107.00
2019-02-18T06:55:24.847Z,101112.00
2019-02-18T06:58:05.952Z,101122.00
2019-02-18T07:00:42.483Z,101121.00
2019-02-18T07:03:24.459Z,101118.00
2019-02-18T07:05:59.815Z,101106.00
2019-02-18T07:08:49.116Z,101119.00
2019-02-18T07:11:44.213Z,101119.00
2019-02-18T07:14:14.584Z,101119.00
2019-02-18T07:16:44.945Z,101120.00
2019-02-18T07:19:15.710Z,101109.00
2019-02-18T07:21:58.359Z,101113.00
2019-02-18T07:24:28.697Z,101106.00
2019-02-18T07:26:59.423Z,101106.00
2019-02-18T07:29:30.470Z,101109.00
2019-02-18T07:32:01.812Z,101111.00
2019-02-18T07:34:32.585Z,101114.00
2019-02-18T07:37:03.005Z,101103.00
2019-02-18T07:39:34.086Z,101106.00
2019-02-18T07:42:04.482Z,101095.00
2019-02-18T07:44:35.147Z,101100.00
2019-02-18T07:47:05.502Z,101104.00
2019-02-18T07:49:35.802Z,101093.00
2019-02-18T07:52:06.444Z,101093.00
2019-02-18T07:54:36.809Z,101089.00
2019-02-18T07:57:07.870Z,101091.00
2019-02-18T07:59:38.219Z,101096.00
2019-02-18T08:02:11.141Z,101090.00
2019-02-18T08:04:41.560Z,101096.00
2019-02-18T08:07:12.214Z,101084.00
2019-02-18T08:09:42.568Z,101089.00
2019-02-18T08:12:12.954Z,101090.00
2019-02-18T08:14:43.655Z,101092.00
2019-02-18T08:17:14.075Z,101088.00
2019-02-18T08:19:44.737Z,101084.00
2019-02-18T08:22:15.100Z,101088.00
2019-02-18T08:24:45.443Z,101091.00
2019-02-18T08:27:16.934Z,101078.00
2019-02-18T08:29:47.657Z,101086.00
2019-02-18T08:32:18.023Z,101086.00
2019-02-18T08:34:48.747Z,101085.00
2019-02-18T08:37:19.160Z,101100.00
2019-02-18T08:39:49.649Z,101088.00
2019-02-18T08:42:20.037Z,101090.00
2019-02-18T08:44:50.406Z,101087.00
2019-02-18T08:47:20.769Z,101076.00
2019-02-18T08:49:51.970Z,101074.00
2019-02-18T08:52:22.385Z,101074.00
2019-02-18T08:54:56.483Z,101079.00
2019-02-18T08:57:24.892Z,101070.00
2019-02-18T08:59:55.652Z,101058.00
2019-02-18T09:02:27.256Z,101069.00
2019-02-18T09:04:57.862Z,101062.00
2019-02-18T09:07:28.258Z,101053.00
2019-02-18T09:09:58.737Z,101051.00
2019-02-18T09:12:29.384Z,101056.00
2019-02-18T09:15:00.460Z,101058.00
2019-02-18T09:17:31.278Z,101049.00
2019-02-18T09:20:01.942Z,101055.00
2019-02-18T09:22:49.465Z,101048.00
2019-02-18T09:25:23.206Z,101047.00
2019-02-18T09:27:53.899Z,101048.00
2019-02-18T09:30:27.711Z,101047.00
2019-02-18T09:32:58.382Z,101040.00
2019-02-18T09:35:28.703Z,101055.00
2019-02-18T09:37:59.344Z,101046.00
2019-02-18T09:40:29.967Z,101050.00
2019-02-18T09:43:00.316Z,101045.00
2019-02-18T09:45:30.684Z,101046.00
2019-02-18T09:48:04.929Z,101034.00
2019-02-18T09:50:35.632Z,101040.00
2019-02-18T09:53:06.727Z,101038.00
2019-02-18T09:55:37.189Z,101039.00
2019-02-18T09:58:07.528Z,101046.00
2019-02-18T10:00:38.190Z,101031.00
2019-02-18T10:03:08.619Z,101030.00
2019-02-18T10:05:38.994Z,101028.00
2019-02-18T10:08:09.983Z,101027.00
2019-02-18T10:10:40.322Z,101029.00
2019-02-18T10:13:10.925Z,101026.00
2019-02-18T10:15:41.567Z,101019.00
2019-02-18T10:18:19.000Z,101018.00
2019-02-18T10:20:49.407Z,101015.00
2019-02-18T10:23:20.218Z,101012.00
2019-02-18T10:25:50.838Z,101001.00
2019-02-18T10:28:21.261Z,101006.00
2019-02-18T10:30:52.481Z,101004.00
2019-02-18T10:33:22.786Z,100997.00
2019-02-18T10:35:53.136Z,100987.00
2019-02-18T10:38:23.527Z,100987.00
2019-02-18T10:40:53.868Z,100982.00
2019-02-18T10:43:32.199Z,100985.00
2019-02-18T10:45:56.698Z,100971.00
2019-02-18T10:48:28.285Z,100974.00
2019-02-18T10:50:59.237Z,100972.00
2019-02-18T10:53:29.852Z,100957.00
2019-02-18T10:56:00.878Z,100957.00
2019-02-18T10:58:31.748Z,100957.00
2019-02-18T11:01:02.084Z,100950.00
2019-02-18T11:03:32.735Z,100965.00
2019-02-18T11:06:03.384Z,100949.00
2019-02-18T11:08:33.749Z,100956.00
2019-02-18T11:11:04.086Z,100947.00
2019-02-18T11:13:34.735Z,100944.00
2019-02-18T11:16:05.440Z,100948.00
2019-02-18T11:18:36.351Z,100944.00
2019-02-18T11:21:07.013Z,100946.00
2019-02-18T11:23:38.158Z,100938.00
2019-02-18T11:26:08.524Z,100944.00
2019-02-18T11:28:39.023Z,100935.00
2019-02-18T11:31:09.368Z,100926.00
2019-02-18T11:33:39.986Z,100932.00
2019-02-18T11:36:10.327Z,100930.00
2019-02-18T11:38:40.767Z,100923.00
2019-02-18T11:41:11.085Z,100919.00
2019-02-18T11:43:41.495Z,100918.00
2019-02-18T11:46:12.385Z,100926.00
2019-02-18T11:48:42.734Z,100916.00
2019-02-18T11:51:13.079Z,100904.00
2019-02-18T11:53:43.777Z,100914.00
2019-02-18T11:56:14.112Z,100912.00
2019-02-18T11:58:45.095Z,100906.00
2019-02-18T12:01:15.598Z,100906.00
2019-02-18T12:03:46.228Z,100904.00
2019-02-18T12:06:16.724Z,100895.00
2019-02-18T12:08:52.850Z,100898.00
2019-02-18T12:11:23.228Z,100893.00
2019-02-18T12:13:54.169Z,100888.00
2019-02-18T12:16:24.503Z,100887.00
2019-02-18T12:18:54.914Z,100882.00
2019-02-18T12:21:25.961Z,100875.00
2019-02-18T12:23:57.008Z,100876.00
2019-02-18T12:26:27.380Z,100872.00
2019-02-18T12:28:57.714Z,100869.00
2019-02-18T12:31:28.391Z,100869.00
2019-02-18T12:33:58.754Z,100858.00
2019-02-18T12:36:29.174Z,100849.00
2019-02-18T12:38:59.509Z,100859.00
2019-02-18T12:41:31.095Z,100853.00
2019-02-18T12:44:01.435Z,100846.00
2019-02-18T12:46:32.079Z,100833.00
2019-02-18T12:49:02.816Z,100835.00
2019-02-18T12:51:42.772Z,100830.00
2019-02-18T12:54:13.414Z,100825.00
2019-02-18T12:56:44.335Z,100826.00
2019-02-18T12:59:14.831Z,100816.00
2019-02-18T13:01:45.454Z,100817.00
2019-02-18T13:04:16.141Z,100827.00
2019-02-18T13:06:46.578Z,100810.00
2019-02-18T13:09:17.396Z,100811.00
2019-02-18T13:11:58.500Z,100806.00
2019-02-18T13:14:20.562Z,100808.00
2019-02-18T13:16:50.928Z,100794.00
2019-02-18T13:19:24.748Z,100797.00
2019-02-18T13:21:55.078Z,100791.00
2019-02-18T13:24:25.425Z,100788.00
2019-02-18T13:26:55.804Z,100790.00
2019-02-18T13:29:26.436Z,100777.00
2019-02-18T13:31:56.789Z,100780.00
2019-02-18T13:34:27.184Z,100774.00
2019-02-18T13:36:58.885Z,100774.00
2019-02-18T13:39:29.726Z,100767.00
2019-02-18T13:42:07.199Z,100772.00
2019-02-18T13:44:32.437Z,100767.00
2019-02-18T13:47:05.202Z,100768.00
2019-02-18T13:49:35.563Z,100766.00
2019-02-18T13:52:06.497Z,100758.00
2019-02-18T13:54:37.273Z,100767.00
2019-02-18T13:57:10.081Z,100766.00
2019-02-18T13:59:39.938Z,100764.00
2019-02-18T14:02:10.318Z,100752.00
2019-02-18T14:04:41.211Z,100763.00
2019-02-18T14:07:11.628Z,100766.00
2019-02-18T14:09:42.430Z,100767.00
2019-02-18T14:12:16.216Z,100756.00
2019-02-18T14:14:45.146Z,100764.00
2019-02-18T14:17:16.300Z,100755.00
2019-02-18T14:19:46.705Z,100757.00
2019-02-18T14:22:17.423Z,100755.00
2019-02-18T14:24:48.122Z,100750.00
2019-02-18T14:27:19.394Z,100752.00
2019-02-18T14:29:52.299Z,100739.00
2019-02-18T14:32:22.907Z,100741.00
2019-02-18T14:34:53.628Z,100737.00
2019-02-18T14:37:23.979Z,100743.00
2019-02-18T14:39:54.723Z,100729.00
2019-02-18T14:42:26.474Z,100741.00
2019-02-18T14:44:56.836Z,100735.00
2019-02-18T14:47:27.793Z,100736.00
2019-02-18T14:49:58.157Z,100730.00
2019-02-18T14:52:28.859Z,100731.00
2019-02-18T14:54:59.254Z,100730.00
2019-02-18T14:57:29.687Z,100723.00
2019-02-18T15:00:00.311Z,100729.00
2019-02-18T15:02:30.684Z,100720.00
2019-02-18T15:05:01.589Z,100717.00
2019-02-18T15:07:31.958Z,100711.00
2019-02-18T15:10:02.702Z,100719.00
2019-02-18T15:12:33.357Z,100723.00
2019-02-18T15:15:04.565Z,100724.00
2019-02-18T15:17:35.462Z,100712.00
2019-02-18T15:20:06.122Z,100707.00
2019-02-18T15:22:36.690Z,100706.00
2019-02-18T15:25:07.432Z,100698.00
2019-02-18T15:27:37.787Z,100696.00
2019-02-18T15:30:10.307Z,100698.00
2019-02-18T15:32:40.653Z,100690.00
2019-02-18T15:35:11.461Z,100686.00
2019-02-18T15:37:44.211Z,100683.00
2019-02-18T15:40:15.874Z,100685.00
2019-02-18T15:42:46.366Z,100679.00
2019-02-18T15:45:17.549Z,100680.00
2019-02-18T15:47:47.908Z,100674.00
2019-02-18T15:50:18.282Z,100668.00
2019-02-18T15:52:48.986Z,100668.00
2019-02-18T15:55:21.807Z,100662.00
2019-02-18T15:58:17.091Z,100655.00
2019-02-18T16:00:47.534Z,100646.00
2019-02-18T16:03:19.333Z,100648.00
2019-02-18T16:05:50.061Z,100645.00
2019-02-18T16:08:20.673Z,100639.00
2019-02-18T16:10:52.180Z,100641.00
2019-02-18T16:13:22.943Z,100639.00
2019-02-18T16:15:53.651Z,100641.00
2019-02-18T16:18:23.989Z,100638.00
2019-02-18T16:20:54.276Z,100636.00
2019-02-18T16:23:24.637Z,100645.00
2019-02-18T16:25:55.462Z,100638.00
2019-02-18T16:28:25.959Z,100640.00
2019-02-18T16:30:58.454Z,100633.00
2019-02-18T16:33:29.109Z,100635.00
2019-02-18T16:36:00.575Z,100631.00
2019-02-18T16:38:30.934Z,100633.00
2019-02-18T16:41:01.300Z,100628.00
2019-02-18T16:43:33.071Z,100635.00
2019-02-18T16:46:08.299Z,100636.00
2019-02-18T16:48:40.028Z,100637.00
2019-02-18T16:51:14.843Z,100647.00
2019-02-18T16:53:45.260Z,100642.00
2019-02-18T16:56:15.866Z,100641.00
2019-02-18T16:58:46.310Z,100644.00
2019-02-18T17:01:17.774Z,100634.00
2019-02-18T17:03:50.777Z,100634.00
2019-02-18T17:06:25.749Z,100638.00
2019-02-18T17:08:58.488Z,100644.00
2019-02-18T17:11:29.119Z,100642.00
2019-02-18T17:14:02.967Z,100649.00
2019-02-18T17:16:34.021Z,100640.00
2019-02-18T17:19:04.555Z,100641.00
2019-02-18T17:21:35.360Z,100645.00
2019-02-18T17:24:05.718Z,100644.00
2019-02-18T17:26:36.502Z,100634.00
2019-02-18T17:29:06.910Z,100633.00
2019-02-18T17:31:37.255Z,100634.00
2019-02-18T17:34:08.024Z,100632.00
2019-02-18T17:36:38.536Z,100634.00
2019-02-18T17:39:09.259Z,100623.00
2019-02-18T17:41:42.920Z,100625.00
2019-02-18T17:44:20.188Z,100626.00
2019-02-18T17:46:47.761Z,100634.00
2019-02-18T17:49:22.586Z,100624.00
2019-02-18T17:51:53.324Z,100631.00
2019-02-18T17:54:24.056Z,100624.00
2019-02-18T17:56:54.516Z,100622.00
2019-02-18T17:59:26.675Z,100626.00
2019-02-18T18:02:01.565Z,100630.00
2019-02-18T18:04:32.330Z,100625.00
2019-02-18T18:07:03.151Z,100633.00
2019-02-18T18:09:33.898Z,100626.00
2019-02-18T18:12:30.347Z,100627.00
2019-02-18T18:15:22.977Z,100625.00
2019-02-18T18:18:02.530Z,100625.00
2019-02-18T18:20:32.983Z,100627.00
2019-02-18T18:23:04.437Z,100629.00
2019-02-18T18:25:35.512Z,100626.00
2019-02-18T18:28:06.812Z,100623.00
2019-02-18T18:30:37.267Z,100611.00
2019-02-18T18:33:07.723Z,100615.00
2019-02-18T18:35:38.253Z,100615.00
2019-02-18T18:38:08.997Z,100609.00
2019-02-18T18:40:39.341Z,100610.00
2019-02-18T18:43:09.712Z,100597.00
2019-02-18T18:45:40.009Z,100607.00
2019-02-18T18:48:11.005Z,100615.00
2019-02-18T18:50:42.802Z,100605.00
2019-02-18T18:53:13.173Z,100613.00
2019-02-18T18:55:43.771Z,100629.00
2019-02-18T18:58:14.551Z,100628.00
2019-02-18T19:00:45.941Z,100629.00
2019-02-18T19:03:16.816Z,100628.00
2019-02-18T19:05:47.516Z,100625.00
2019-02-18T19:08:17.910Z,100635.00
2019-02-18T19:10:48.275Z,100620.00
2019-02-18T19:13:18.932Z,100624.00
2019-02-18T19:15:49.965Z,100630.00
2019-02-18T19:18:20.312Z,100636.00
2019-02-18T19:20:50.982Z,100638.00
2019-02-18T19:23:21.339Z,100627.00
2019-02-18T19:25:51.619Z,100636.00
2019-02-18T19:28:25.530Z,100637.00
2019-02-18T19:30:55.885Z,100643.00
2019-02-18T19:33:26.638Z,100636.00
2019-02-18T19:35:57.077Z,100640.00
2019-02-18T19:38:29.691Z,100632.00
2019-02-18T19:41:04.363Z,100635.00
2019-02-18T19:43:36.728Z,100636.00
2019-02-18T19:46:07.109Z,100641.00
2019-02-18T19:48:37.864Z,100636.00
2019-02-18T19:51:08.772Z,100638.00
2019-02-18T19:53:40.215Z,100644.00
2019-02-18T19:56:10.581Z,100647.00
2019-02-18T19:58:43.951Z,100646.00
2019-02-18T20:01:14.411Z,100641.00
2019-02-18T20:03:47.527Z,100641.00
2019-02-18T20:06:18.215Z,100638.00
2019-02-18T20:08:52.411Z,100642.00
2019-02-18T20:11:23.110Z,100636.00
2019-02-18T20:13:58.841Z,100637.00
2019-02-18T20:16:26.859Z,100640.00
2019-02-18T20:18:59.323Z,100638.00
2019-02-18T20:21:30.178Z,100643.00
2019-02-18T20:24:01.618Z,100645.00
2019-02-18T20:26:32.302Z,100639.00
2019-02-18T20:29:02.978Z,100632.00
2019-02-18T20:31:39.633Z,100629.00
2019-02-18T20:34:11.165Z,100638.00
2019-02-18T20:36:44.682Z,100641.00
2019-02-18T20:39:15.763Z,100634.00
2019-02-18T20:41:46.142Z,100639.00
2019-02-18T20:44:16.984Z,100637.00
2019-02-18T20:46:48.187Z,100630.00
2019-02-18T20:49:19.115Z,100636.00
2019-02-18T20:51:50.968Z,100637.00
2019-02-18T20:54:26.187Z,100644.00
2019-02-18T20:57:00.356Z,100637.00
2019-02-18T20:59:30.911Z,100637.00
2019-02-18T21:02:01.595Z,100632.00
2019-02-18T21:04:32.956Z,100644.00
2019-02-18T21:07:04.120Z,100625.00
2019-02-18T21:09:36.148Z,100640.00
2019-02-18T21:12:06.543Z,100646.00
2019-02-18T21:14:37.650Z,100641.00
2019-02-18T21:17:08.551Z,100641.00
2019-02-18T21:19:39.491Z,100642.00
2019-02-18T21:22:09.834Z,100632.00
2019-02-18T21:24:40.293Z,100637.00
2019-02-18T21:27:10.837Z,100637.00
2019-02-18T21:29:43.763Z,100633.00
2019-02-18T21:32:14.102Z,100635.00
2019-02-18T21:34:44.839Z,100628.00
2019-02-18T21:37:16.277Z,100632.00
2019-02-18T21:39:46.777Z,100623.00
2019-02-18T21:42:18.062Z,100626.00
2019-02-18T21:44:48.455Z,100633.00
2019-02-18T21:47:18.804Z,100628.00
2019-02-18T21:49:49.973Z,100627.00
2019-02-18T21:52:20.382Z,100624.00
2019-02-18T21:54:51.108Z,100625.00
2019-02-18T21:57:21.477Z,100629.00
2019-02-18T21:59:52.126Z,100626.00
2019-02-18T22:02:23.426Z,100622.00
2019-02-18T22:04:59.878Z,100617.00
2019-02-18T22:07:30.245Z,100625.00
2019-02-18T22:10:01.391Z,100618.00
2019-02-18T22:12:31.728Z,100624.00
2019-02-18T22:15:04.102Z,100626.00
2019-02-18T22:17:34.441Z,100631.00
2019-02-18T22:20:05.446Z,100618.00
2019-02-18T22:22:36.847Z,100623.00
2019-02-18T22:25:08.639Z,100623.00
2019-02-18T22:27:39.074Z,100637.00
2019-02-18T22:30:11.100Z,100635.00
2019-02-18T22:32:41.736Z,100620.00
2019-02-18T22:35:12.241Z,100625.00
2019-02-18T22:37:42.657Z,100628.00
2019-02-18T22:40:13.894Z,100615.00
2019-02-18T22:42:44.278Z,100620.00
2019-02-18T22:45:15.115Z,100618.00
2019-02-18T22:47:45.613Z,100615.00
2019-02-18T22:50:16.576Z,100623.00
2019-02-18T22:52:47.058Z,100623.00
2019-02-18T22:55:19.431Z,100622.00
2019-02-18T22:57:50.124Z,100623.00
2019-02-18T23:01:11.377Z,100624.00
2019-02-18T23:03:42.123Z,100605.00
2019-02-18T23:06:14.011Z,100619.00
2019-02-18T23:08:45.227Z,100618.00
2019-02-18T23:11:15.812Z,100616.00
2019-02-18T23:13:46.207Z,100618.00
2019-02-18T23:16:18.671Z,100622.00
2019-02-18T23:18:50.525Z,100618.00
2019-02-18T23:21:21.196Z,100630.00
2019-02-18T23:23:51.885Z,100612.00
2019-02-18T23:26:22.895Z,100622.00
2019-02-18T23:28:53.283Z,100622.00
2019-02-18T23:31:23.727Z,100615.00
2019-02-18T23:33:54.364Z,100618.00
2019-02-18T23:36:25.136Z,100628.00
2019-02-18T23:38:55.857Z,100620.00
2019-02-18T23:41:26.222Z,100622.00
2019-02-18T23:43:57.074Z,100622.00
2019-02-18T23:46:27.715Z,100632.00
2019-02-18T23:48:58.349Z,100627.00
2019-02-18T23:51:28.911Z,100634.00
2019-02-18T23:53:59.697Z,100628.00
2019-02-18T23:56:30.397Z,100637.00
2019-02-18T23:59:00.771Z,100633.00
